sensor_id;sensor_type;location;lat;lon;timestamp;P1;durP1;ratioP1;P2;durP2;ratioP2
8268;SDS011;4174;48.304;16.364;2023-01-01T00:04:46;68.77;;;30.43;;
8268;SDS011;4174;48.304;16.364;2023-01-01T00:10:50;63.75;;;28.23;;
8268;SDS011;4174;48.304;16.364;2023-01-01T00:16:54;75.03;;;32.10;;
8268;SDS011;4174;48.304;16.364;2023-01-01T00:22:56;85.43;;;37.10;;
8268;SDS011;4174;48.304;16.364;2023-01-01T00:29:00;115.80;;;48.10;;
8268;SDS011;4174;48.304;16.364;2023-01-01T00:35:04;174.93;;;69.80;;
8268;SDS011;4174;48.304;16.364;2023-01-01T00:41:10;149.60;;;58.30;;
8268;SDS011;4174;48.304;16.364;2023-01-01T00:47:13;119.27;;;47.50;;
8268;SDS011;4174;48.304;16.364;2023-01-01T00:53:18;93.28;;;38.72;;
8268;SDS011;4174;48.304;16.364;2023-01-01T00:59:20;76.03;;;33.15;;
8268;SDS011;4174;48.304;16.364;2023-01-01T01:05:24;68.70;;;30.00;;
8268;SDS011;4174;48.304;16.364;2023-01-01T01:11:28;67.90;;;29.55;;
8268;SDS011;4174;48.304;16.364;2023-01-01T01:17:32;63.28;;;27.17;;
8268;SDS011;4174;48.304;16.364;2023-01-01T01:23:34;58.38;;;25.67;;
8268;SDS011;4174;48.304;16.364;2023-01-01T01:29:37;56.27;;;25.90;;
8268;SDS011;4174;48.304;16.364;2023-01-01T01:35:40;57.03;;;25.33;;
8268;SDS011;4174;48.304;16.364;2023-01-01T01:41:45;61.47;;;26.85;;
8268;SDS011;4174;48.304;16.364;2023-01-01T01:47:50;64.07;;;27.98;;
8268;SDS011;4174;48.304;16.364;2023-01-01T01:53:56;56.50;;;25.67;;
8268;SDS011;4174;48.304;16.364;2023-01-01T01:59:57;57.87;;;26.80;;
8268;SDS011;4174;48.304;16.364;2023-01-01T02:06:00;60.97;;;26.23;;
8268;SDS011;4174;48.304;16.364;2023-01-01T02:12:04;66.00;;;28.23;;
8268;SDS011;4174;48.304;16.364;2023-01-01T02:18:09;69.17;;;31.30;;
8268;SDS011;4174;48.304;16.364;2023-01-01T02:24:14;79.55;;;33.58;;
8268;SDS011;4174;48.304;16.364;2023-01-01T02:30:33;74.28;;;32.88;;
8268;SDS011;4174;48.304;16.364;2023-01-01T02:36:37;79.70;;;33.47;;
8268;SDS011;4174;48.304;16.364;2023-01-01T02:42:38;73.23;;;32.30;;
8268;SDS011;4174;48.304;16.364;2023-01-01T02:48:42;73.20;;;32.05;;
8268;SDS011;4174;48.304;16.364;2023-01-01T02:54:50;72.17;;;30.10;;
8268;SDS011;4174;48.304;16.364;2023-01-01T03:00:55;69.68;;;31.23;;
8268;SDS011;4174;48.304;16.364;2023-01-01T03:07:01;66.95;;;30.05;;
8268;SDS011;4174;48.304;16.364;2023-01-01T03:13:22;65.53;;;29.43;;
8268;SDS011;4174;48.304;16.364;2023-01-01T03:19:40;65.25;;;29.20;;
8268;SDS011;4174;48.304;16.364;2023-01-01T03:25:45;74.05;;;32.92;;
8268;SDS011;4174;48.304;16.364;2023-01-01T03:31:47;71.97;;;32.55;;
8268;SDS011;4174;48.304;16.364;2023-01-01T03:37:50;63.87;;;29.20;;
8268;SDS011;4174;48.304;16.364;2023-01-01T03:50:24;55.10;;;24.70;;
8268;SDS011;4174;48.304;16.364;2023-01-01T03:56:29;51.70;;;22.42;;
8268;SDS011;4174;48.304;16.364;2023-01-01T04:02:36;46.43;;;21.60;;
8268;SDS011;4174;48.304;16.364;2023-01-01T04:08:38;46.70;;;21.20;;
8268;SDS011;4174;48.304;16.364;2023-01-01T04:14:41;47.40;;;21.95;;
8268;SDS011;4174;48.304;16.364;2023-01-01T04:20:45;46.30;;;21.97;;
8268;SDS011;4174;48.304;16.364;2023-01-01T04:26:50;47.13;;;21.73;;
8268;SDS011;4174;48.304;16.364;2023-01-01T04:32:53;47.33;;;22.77;;
8268;SDS011;4174;48.304;16.364;2023-01-01T04:38:55;46.28;;;22.42;;
8268;SDS011;4174;48.304;16.364;2023-01-01T04:44:58;51.57;;;22.47;;
8268;SDS011;4174;48.304;16.364;2023-01-01T04:51:02;49.80;;;21.87;;
8268;SDS011;4174;48.304;16.364;2023-01-01T04:57:04;46.37;;;20.95;;
8268;SDS011;4174;48.304;16.364;2023-01-01T05:03:07;48.35;;;21.23;;
8268;SDS011;4174;48.304;16.364;2023-01-01T05:09:11;45.83;;;20.97;;
8268;SDS011;4174;48.304;16.364;2023-01-01T05:15:15;50.50;;;21.03;;
8268;SDS011;4174;48.304;16.364;2023-01-01T05:21:21;47.13;;;21.83;;
8268;SDS011;4174;48.304;16.364;2023-01-01T05:27:25;42.47;;;20.65;;
8268;SDS011;4174;48.304;16.364;2023-01-01T05:33:28;42.77;;;21.07;;
8268;SDS011;4174;48.304;16.364;2023-01-01T05:39:32;43.47;;;21.13;;
8268;SDS011;4174;48.304;16.364;2023-01-01T05:45:35;41.03;;;20.70;;
8268;SDS011;4174;48.304;16.364;2023-01-01T05:51:39;39.90;;;19.27;;
8268;SDS011;4174;48.304;16.364;2023-01-01T05:57:43;38.05;;;18.98;;
8268;SDS011;4174;48.304;16.364;2023-01-01T06:03:47;40.47;;;20.13;;
8268;SDS011;4174;48.304;16.364;2023-01-01T06:09:50;39.90;;;19.87;;
8268;SDS011;4174;48.304;16.364;2023-01-01T06:15:54;40.03;;;19.90;;
8268;SDS011;4174;48.304;16.364;2023-01-01T06:21:56;40.83;;;19.85;;
8268;SDS011;4174;48.304;16.364;2023-01-01T06:28:00;39.50;;;19.50;;
8268;SDS011;4174;48.304;16.364;2023-01-01T06:34:04;43.53;;;20.40;;
8268;SDS011;4174;48.304;16.364;2023-01-01T06:40:08;41.73;;;20.47;;
8268;SDS011;4174;48.304;16.364;2023-01-01T06:46:16;43.38;;;20.45;;
8268;SDS011;4174;48.304;16.364;2023-01-01T06:52:18;42.42;;;21.25;;
8268;SDS011;4174;48.304;16.364;2023-01-01T06:58:21;41.50;;;21.10;;
8268;SDS011;4174;48.304;16.364;2023-01-01T07:04:25;44.67;;;21.95;;
8268;SDS011;4174;48.304;16.364;2023-01-01T07:10:29;42.73;;;20.93;;
8268;SDS011;4174;48.304;16.364;2023-01-01T07:16:33;44.27;;;21.30;;
8268;SDS011;4174;48.304;16.364;2023-01-01T07:22:37;43.28;;;21.48;;
8268;SDS011;4174;48.304;16.364;2023-01-01T07:28:39;40.77;;;21.37;;
8268;SDS011;4174;48.304;16.364;2023-01-01T07:34:43;43.90;;;21.40;;
8268;SDS011;4174;48.304;16.364;2023-01-01T07:40:46;44.93;;;22.57;;
8268;SDS011;4174;48.304;16.364;2023-01-01T07:46:50;46.40;;;23.45;;
8268;SDS011;4174;48.304;16.364;2023-01-01T07:52:54;40.15;;;20.62;;
8268;SDS011;4174;48.304;16.364;2023-01-01T07:58:58;41.55;;;21.60;;
8268;SDS011;4174;48.304;16.364;2023-01-01T08:05:02;39.00;;;19.95;;
8268;SDS011;4174;48.304;16.364;2023-01-01T08:11:07;39.30;;;20.03;;
8268;SDS011;4174;48.304;16.364;2023-01-01T08:17:11;39.58;;;21.08;;
8268;SDS011;4174;48.304;16.364;2023-01-01T08:23:15;42.97;;;21.20;;
8268;SDS011;4174;48.304;16.364;2023-01-01T08:29:18;41.23;;;20.73;;
8268;SDS011;4174;48.304;16.364;2023-01-01T08:35:21;41.27;;;21.47;;
8268;SDS011;4174;48.304;16.364;2023-01-01T08:41:25;42.57;;;21.20;;
8268;SDS011;4174;48.304;16.364;2023-01-01T08:47:30;38.78;;;20.62;;
8268;SDS011;4174;48.304;16.364;2023-01-01T08:53:36;39.63;;;20.65;;
8268;SDS011;4174;48.304;16.364;2023-01-01T08:59:40;38.03;;;20.17;;
8268;SDS011;4174;48.304;16.364;2023-01-01T09:05:44;33.80;;;19.03;;
8268;SDS011;4174;48.304;16.364;2023-01-01T09:11:49;35.47;;;19.65;;
8268;SDS011;4174;48.304;16.364;2023-01-01T09:17:52;34.05;;;18.75;;
8268;SDS011;4174;48.304;16.364;2023-01-01T09:23:55;40.57;;;21.23;;
8268;SDS011;4174;48.304;16.364;2023-01-01T09:29:59;38.93;;;21.10;;
8268;SDS011;4174;48.304;16.364;2023-01-01T09:42:21;39.00;;;20.97;;
8268;SDS011;4174;48.304;16.364;2023-01-01T09:48:31;36.22;;;19.23;;
8268;SDS011;4174;48.304;16.364;2023-01-01T09:54:36;34.47;;;17.52;;
8268;SDS011;4174;48.304;16.364;2023-01-01T10:00:41;30.55;;;15.95;;
8268;SDS011;4174;48.304;16.364;2023-01-01T10:06:45;29.77;;;14.40;;
8268;SDS011;4174;48.304;16.364;2023-01-01T10:12:47;28.87;;;14.87;;
8268;SDS011;4174;48.304;16.364;2023-01-01T10:18:53;27.07;;;13.63;;
8268;SDS011;4174;48.304;16.364;2023-01-01T10:24:58;28.93;;;15.00;;
8268;SDS011;4174;48.304;16.364;2023-01-01T10:31:13;30.97;;;16.17;;
8268;SDS011;4174;48.304;16.364;2023-01-01T10:37:20;29.90;;;14.70;;
8268;SDS011;4174;48.304;16.364;2023-01-01T10:43:24;28.10;;;13.55;;
8268;SDS011;4174;48.304;16.364;2023-01-01T10:49:27;26.63;;;13.50;;
8268;SDS011;4174;48.304;16.364;2023-01-01T10:55:33;26.50;;;13.25;;
8268;SDS011;4174;48.304;16.364;2023-01-01T11:01:37;25.80;;;13.20;;
8268;SDS011;4174;48.304;16.364;2023-01-01T11:07:41;27.57;;;13.60;;
8268;SDS011;4174;48.304;16.364;2023-01-01T11:13:46;27.97;;;13.97;;
8268;SDS011;4174;48.304;16.364;2023-01-01T11:19:48;26.27;;;13.80;;
8268;SDS011;4174;48.304;16.364;2023-01-01T11:25:55;26.85;;;13.68;;
8268;SDS011;4174;48.304;16.364;2023-01-01T11:32:26;26.47;;;13.23;;
8268;SDS011;4174;48.304;16.364;2023-01-01T11:38:28;23.33;;;12.45;;
8268;SDS011;4174;48.304;16.364;2023-01-01T11:44:33;26.57;;;13.00;;
8268;SDS011;4174;48.304;16.364;2023-01-01T11:50:38;25.17;;;11.67;;
8268;SDS011;4174;48.304;16.364;2023-01-01T11:56:41;22.80;;;11.32;;
8268;SDS011;4174;48.304;16.364;2023-01-01T12:02:47;22.60;;;11.13;;
8268;SDS011;4174;48.304;16.364;2023-01-01T12:08:54;21.10;;;10.30;;
8268;SDS011;4174;48.304;16.364;2023-01-01T12:15:19;20.55;;;9.98;;
8268;SDS011;4174;48.304;16.364;2023-01-01T12:21:27;22.73;;;10.90;;
8268;SDS011;4174;48.304;16.364;2023-01-01T12:27:40;24.87;;;11.90;;
8268;SDS011;4174;48.304;16.364;2023-01-01T12:34:09;26.20;;;12.80;;
8268;SDS011;4174;48.304;16.364;2023-01-01T12:40:33;24.90;;;11.73;;
8268;SDS011;4174;48.304;16.364;2023-01-01T12:46:56;24.23;;;12.40;;
8268;SDS011;4174;48.304;16.364;2023-01-01T13:00:11;26.62;;;12.55;;
8268;SDS011;4174;48.304;16.364;2023-01-01T13:06:15;24.10;;;11.40;;
8268;SDS011;4174;48.304;16.364;2023-01-01T13:12:18;23.52;;;10.88;;
8268;SDS011;4174;48.304;16.364;2023-01-01T13:18:21;23.20;;;10.95;;
8268;SDS011;4174;48.304;16.364;2023-01-01T13:24:27;21.75;;;10.70;;
8268;SDS011;4174;48.304;16.364;2023-01-01T13:37:24;25.58;;;11.15;;
8268;SDS011;4174;48.304;16.364;2023-01-01T13:43:26;25.33;;;11.13;;
8268;SDS011;4174;48.304;16.364;2023-01-01T13:50:04;24.52;;;11.63;;
8268;SDS011;4174;48.304;16.364;2023-01-01T13:55:59;27.92;;;12.70;;
8268;SDS011;4174;48.304;16.364;2023-01-01T14:02:21;27.13;;;12.83;;
8268;SDS011;4174;48.304;16.364;2023-01-01T14:08:26;24.93;;;12.13;;
8268;SDS011;4174;48.304;16.364;2023-01-01T14:14:29;27.50;;;13.37;;
8268;SDS011;4174;48.304;16.364;2023-01-01T14:20:35;27.10;;;13.38;;
8268;SDS011;4174;48.304;16.364;2023-01-01T14:26:36;26.85;;;13.02;;
8268;SDS011;4174;48.304;16.364;2023-01-01T14:32:39;25.20;;;12.87;;
8268;SDS011;4174;48.304;16.364;2023-01-01T14:38:44;25.50;;;12.30;;
8268;SDS011;4174;48.304;16.364;2023-01-01T14:44:47;27.92;;;13.00;;
8268;SDS011;4174;48.304;16.364;2023-01-01T14:50:49;26.60;;;13.35;;
8268;SDS011;4174;48.304;16.364;2023-01-01T14:56:51;28.97;;;13.97;;
8268;SDS011;4174;48.304;16.364;2023-01-01T15:02:54;32.43;;;15.00;;
8268;SDS011;4174;48.304;16.364;2023-01-01T15:08:57;30.57;;;15.10;;
8268;SDS011;4174;48.304;16.364;2023-01-01T15:15:02;30.35;;;15.30;;
8268;SDS011;4174;48.304;16.364;2023-01-01T15:21:11;30.67;;;15.47;;
8268;SDS011;4174;48.304;16.364;2023-01-01T15:27:24;32.38;;;16.00;;
8268;SDS011;4174;48.304;16.364;2023-01-01T15:33:25;33.42;;;15.90;;
8268;SDS011;4174;48.304;16.364;2023-01-01T15:39:28;35.37;;;16.90;;
8268;SDS011;4174;48.304;16.364;2023-01-01T15:45:34;36.67;;;17.50;;
8268;SDS011;4174;48.304;16.364;2023-01-01T15:51:39;43.53;;;18.83;;
8268;SDS011;4174;48.304;16.364;2023-01-01T15:57:39;43.83;;;19.00;;
8268;SDS011;4174;48.304;16.364;2023-01-01T16:03:42;42.47;;;18.40;;
8268;SDS011;4174;48.304;16.364;2023-01-01T16:09:46;43.17;;;17.80;;
8268;SDS011;4174;48.304;16.364;2023-01-01T16:15:50;42.33;;;17.42;;
8268;SDS011;4174;48.304;16.364;2023-01-01T16:22:00;41.92;;;16.42;;
8268;SDS011;4174;48.304;16.364;2023-01-01T16:28:07;42.90;;;16.50;;
8268;SDS011;4174;48.304;16.364;2023-01-01T16:34:12;41.60;;;16.20;;
8268;SDS011;4174;48.304;16.364;2023-01-01T16:40:14;38.83;;;15.80;;
8268;SDS011;4174;48.304;16.364;2023-01-01T16:46:19;38.37;;;15.43;;
8268;SDS011;4174;48.304;16.364;2023-01-01T16:52:23;43.42;;;16.85;;
8268;SDS011;4174;48.304;16.364;2023-01-01T16:58:27;38.28;;;15.23;;
8268;SDS011;4174;48.304;16.364;2023-01-01T17:04:30;41.80;;;15.10;;
8268;SDS011;4174;48.304;16.364;2023-01-01T17:10:34;44.97;;;16.57;;
8268;SDS011;4174;48.304;16.364;2023-01-01T17:16:37;39.83;;;15.70;;
8268;SDS011;4174;48.304;16.364;2023-01-01T17:22:40;40.13;;;15.97;;
8268;SDS011;4174;48.304;16.364;2023-01-01T17:28:45;45.33;;;18.87;;
8268;SDS011;4174;48.304;16.364;2023-01-01T17:34:47;40.33;;;16.55;;
8268;SDS011;4174;48.304;16.364;2023-01-01T17:40:52;43.03;;;17.17;;
8268;SDS011;4174;48.304;16.364;2023-01-01T17:46:55;43.85;;;18.08;;
8268;SDS011;4174;48.304;16.364;2023-01-01T17:52:58;43.78;;;18.62;;
8268;SDS011;4174;48.304;16.364;2023-01-01T17:59:02;42.50;;;17.13;;
8268;SDS011;4174;48.304;16.364;2023-01-01T18:05:06;42.27;;;17.33;;
8268;SDS011;4174;48.304;16.364;2023-01-01T18:11:10;43.08;;;19.42;;
8268;SDS011;4174;48.304;16.364;2023-01-01T18:17:15;41.97;;;18.20;;
8268;SDS011;4174;48.304;16.364;2023-01-01T18:23:18;44.47;;;18.50;;
8268;SDS011;4174;48.304;16.364;2023-01-01T18:29:23;40.83;;;18.33;;
8268;SDS011;4174;48.304;16.364;2023-01-01T18:35:27;40.40;;;18.50;;
8268;SDS011;4174;48.304;16.364;2023-01-01T18:41:34;42.03;;;18.57;;
8268;SDS011;4174;48.304;16.364;2023-01-01T18:47:55;43.97;;;18.77;;
8268;SDS011;4174;48.304;16.364;2023-01-01T18:53:59;41.63;;;18.07;;
8268;SDS011;4174;48.304;16.364;2023-01-01T19:06:23;37.30;;;16.17;;
8268;SDS011;4174;48.304;16.364;2023-01-01T19:12:25;36.17;;;16.50;;
8268;SDS011;4174;48.304;16.364;2023-01-01T19:18:30;37.23;;;16.50;;
8268;SDS011;4174;48.304;16.364;2023-01-01T19:24:33;39.20;;;16.80;;
8268;SDS011;4174;48.304;16.364;2023-01-01T19:30:36;37.20;;;16.20;;
8268;SDS011;4174;48.304;16.364;2023-01-01T19:36:40;38.13;;;16.52;;
8268;SDS011;4174;48.304;16.364;2023-01-01T19:42:43;36.75;;;15.95;;
8268;SDS011;4174;48.304;16.364;2023-01-01T19:48:48;38.00;;;15.70;;
8268;SDS011;4174;48.304;16.364;2023-01-01T19:54:52;37.95;;;16.35;;
8268;SDS011;4174;48.304;16.364;2023-01-01T20:00:55;35.10;;;15.48;;
8268;SDS011;4174;48.304;16.364;2023-01-01T20:06:59;39.20;;;16.80;;
8268;SDS011;4174;48.304;16.364;2023-01-01T20:13:03;33.92;;;15.27;;
8268;SDS011;4174;48.304;16.364;2023-01-01T20:19:06;36.17;;;16.03;;
8268;SDS011;4174;48.304;16.364;2023-01-01T20:25:11;36.00;;;15.47;;
8268;SDS011;4174;48.304;16.364;2023-01-01T20:31:14;36.50;;;16.77;;
8268;SDS011;4174;48.304;16.364;2023-01-01T20:37:20;36.33;;;15.53;;
8268;SDS011;4174;48.304;16.364;2023-01-01T20:43:28;34.50;;;15.40;;
8268;SDS011;4174;48.304;16.364;2023-01-01T20:49:32;34.97;;;15.43;;
8268;SDS011;4174;48.304;16.364;2023-01-01T20:55:36;35.40;;;15.60;;
8268;SDS011;4174;48.304;16.364;2023-01-01T21:01:39;35.33;;;15.40;;
8268;SDS011;4174;48.304;16.364;2023-01-01T21:07:42;37.60;;;15.03;;
8268;SDS011;4174;48.304;16.364;2023-01-01T21:13:46;35.97;;;15.30;;
8268;SDS011;4174;48.304;16.364;2023-01-01T21:19:50;39.08;;;15.32;;
8268;SDS011;4174;48.304;16.364;2023-01-01T21:25:53;36.65;;;15.50;;
8268;SDS011;4174;48.304;16.364;2023-01-01T21:32:01;33.20;;;13.37;;
8268;SDS011;4174;48.304;16.364;2023-01-01T21:38:18;32.03;;;13.50;;
8268;SDS011;4174;48.304;16.364;2023-01-01T21:44:22;36.50;;;13.80;;
8268;SDS011;4174;48.304;16.364;2023-01-01T21:50:26;30.83;;;13.17;;
8268;SDS011;4174;48.304;16.364;2023-01-01T21:56:33;30.97;;;12.70;;
8268;SDS011;4174;48.304;16.364;2023-01-01T22:02:35;32.35;;;13.25;;
8268;SDS011;4174;48.304;16.364;2023-01-01T22:08:37;30.63;;;12.37;;
8268;SDS011;4174;48.304;16.364;2023-01-01T22:14:40;32.17;;;12.83;;
8268;SDS011;4174;48.304;16.364;2023-01-01T22:20:45;25.98;;;11.60;;
8268;SDS011;4174;48.304;16.364;2023-01-01T22:26:47;28.40;;;11.87;;
8268;SDS011;4174;48.304;16.364;2023-01-01T22:32:53;30.17;;;13.07;;
8268;SDS011;4174;48.304;16.364;2023-01-01T22:38:56;31.10;;;12.98;;
8268;SDS011;4174;48.304;16.364;2023-01-01T22:44:59;28.65;;;11.88;;
8268;SDS011;4174;48.304;16.364;2023-01-01T22:51:06;33.27;;;13.20;;
8268;SDS011;4174;48.304;16.364;2023-01-01T22:57:09;33.40;;;13.10;;
8268;SDS011;4174;48.304;16.364;2023-01-01T23:03:13;29.80;;;12.85;;
8268;SDS011;4174;48.304;16.364;2023-01-01T23:09:17;30.80;;;12.80;;
8268;SDS011;4174;48.304;16.364;2023-01-01T23:15:20;30.20;;;12.63;;
8268;SDS011;4174;48.304;16.364;2023-01-01T23:21:29;31.10;;;12.60;;
8268;SDS011;4174;48.304;16.364;2023-01-01T23:27:31;31.67;;;12.67;;
8268;SDS011;4174;48.304;16.364;2023-01-01T23:33:34;34.07;;;12.93;;
8268;SDS011;4174;48.304;16.364;2023-01-01T23:39:37;34.28;;;12.70;;
8268;SDS011;4174;48.304;16.364;2023-01-01T23:45:41;33.50;;;11.87;;
8268;SDS011;4174;48.304;16.364;2023-01-01T23:51:44;33.33;;;12.20;;
8268;SDS011;4174;48.304;16.364;2023-01-01T23:57:47;29.67;;;11.97;;
